Time;durP1;ratioP1;P1;durP2;ratioP2;P2;SDS_P1;SDS_P2;PMS_P1;PMS_P2;Temp;Humidity;BMP_temperature;BMP_pressure;BME280_temperature;BME280_humidity;BME280_pressure;Samples;Min_cycle;Max_cycle;Signal;HPM_P1;HPM_P2
2022/09/19 00:01:45;;;;;;;2.57;1.10;;;;;;;-145.69;100.00;71991.44;5092765;28;20229;-76
2022/09/19 00:04:13;;;;;;;4.03;1.20;;;;;;;-145.69;100.00;71995.41;5092596;28;20194;-78
2022/09/19 00:06:43;;;;;;;1.60;1.43;;;;;;;-145.69;100.00;71991.44;5092665;28;20202;-76
2022/09/19 00:09:11;;;;;;;2.90;0.87;;;;;;;-145.69;100.00;71993.44;5092697;28;20289;-76
2022/09/19 00:11:41;;;;;;;3.13;1.40;;;;;;;-145.69;100.00;71995.41;5072802;28;20202;-76
2022/09/19 00:14:10;;;;;;;4.60;1.07;;;;;;;-145.69;100.00;72001.38;5073738;28;20684;-76
2022/09/19 00:16:39;;;;;;;5.70;1.20;;;;;;;-145.69;100.00;71991.44;5076432;28;20203;-76
2022/09/19 00:19:11;;;;;;;4.00;1.30;;;;;;;-145.69;100.00;71999.41;5076158;28;20202;-77
2022/09/19 00:21:39;;;;;;;3.57;1.10;;;;;;;-145.69;100.00;71999.41;5075886;28;20633;-76
2022/09/19 00:26:55;;;;;;;3.90;1.10;;;;;;;-145.69;100.00;72009.34;5096361;28;20208;-76
2022/09/19 00:29:22;;;;;;;4.23;1.10;;;;;;;-145.69;100.00;72003.38;5096291;28;20201;-76
2022/09/19 00:31:49;;;;;;;2.73;1.30;;;;;;;-145.69;100.00;71989.44;5096239;28;20672;-76
2022/09/19 00:34:17;;;;;;;7.57;1.00;;;;;;;-145.69;100.00;72009.34;5096276;28;20637;-76
2022/09/19 00:36:44;;;;;;;4.17;1.23;;;;;;;-145.69;100.00;72011.34;5096024;28;20202;-76
2022/09/19 00:39:14;;;;;;;2.73;0.97;;;;;;;-145.69;100.00;72009.34;5076885;28;20230;-76
2022/09/19 00:41:42;;;;;;;2.27;1.20;;;;;;;-145.69;100.00;72013.31;5075715;28;20305;-76
2022/09/19 00:44:42;;;;;;;5.90;1.47;;;;;;;-145.69;100.00;72017.31;5075874;28;20202;-75
2022/09/19 00:47:14;;;;;;;5.07;1.50;;;;;;;-145.69;100.00;72015.31;5075523;28;20212;-77
2022/09/19 00:49:44;;;;;;;3.13;1.40;;;;;;;-145.69;100.00;72015.31;5074831;28;20522;-76
2022/09/19 00:52:17;;;;;;;2.03;1.20;;;;;;;-145.69;100.00;72019.31;5085977;28;20194;-76
2022/09/19 00:54:46;;;;;;;4.27;1.40;;;;;;;-145.69;100.00;72011.34;5095949;28;20201;-76
2022/09/19 00:57:14;;;;;;;1.53;1.17;;;;;;;-145.69;100.00;72011.34;5095755;28;20201;-76
2022/09/19 00:59:46;;;;;;;3.67;1.30;;;;;;;-145.69;100.00;72015.31;5095599;28;20703;-77
2022/09/19 01:02:18;;;;;;;4.50;1.40;;;;;;;-145.69;100.00;72019.31;5095701;28;20699;-77
2022/09/19 01:04:45;;;;;;;3.40;1.30;;;;;;;-145.69;100.00;72027.25;5095835;28;20209;-76
2022/09/19 01:07:17;;;;;;;4.87;1.67;;;;;;;-145.69;100.00;72035.22;5077954;28;20201;-76
2022/09/19 01:09:50;;;;;;;5.43;1.50;;;;;;;-145.69;100.00;72029.25;5075318;28;20203;-77
2022/09/19 01:12:33;;;;;;;3.70;1.50;;;;;;;-145.69;100.00;72031.25;5075519;28;20198;-77
2022/09/19 01:15:13;;;;;;;1.43;1.33;;;;;;;-145.69;100.00;72029.25;5056244;28;20202;-77
2022/09/19 01:17:46;;;;;;;3.83;1.70;;;;;;;-145.69;100.00;72031.25;5055232;28;20191;-77
2022/09/19 01:20:54;;;;;;;2.73;1.67;;;;;;;-145.69;100.00;72047.16;5078613;28;20275;-76
2022/09/19 01:23:39;;;;;;;3.87;1.40;;;;;;;-145.69;100.00;72043.19;5093560;28;20557;-76
2022/09/19 01:26:19;;;;;;;2.07;1.57;;;;;;;-145.69;100.00;72045.16;5093594;28;20200;-77
2022/09/19 01:28:55;;;;;;;2.80;1.70;;;;;;;-145.69;100.00;72045.16;5095044;28;20194;-76
2022/09/19 01:31:27;;;;;;;4.23;1.47;;;;;;;-145.69;100.00;72051.16;5095329;28;20224;-76
2022/09/19 01:34:02;;;;;;;3.30;1.50;;;;;;;-145.69;100.00;72043.19;5086692;28;20198;-76
2022/09/19 01:36:34;;;;;;;2.20;1.50;;;;;;;-145.69;100.00;72051.16;5074755;28;20209;-76
2022/09/19 01:39:02;;;;;;;3.77;1.70;;;;;;;-145.69;100.00;72053.13;5074910;28;20202;-76
2022/09/19 01:41:30;;;;;;;3.90;1.63;;;;;;;-145.69;100.00;72055.13;5074674;28;20758;-76
2022/09/19 01:44:05;;;;;;;6.40;1.57;;;;;;;-145.69;100.00;72061.09;5074963;28;20210;-76
2022/09/19 01:46:43;;;;;;;4.80;1.90;;;;;;;-145.69;100.00;72049.16;5074912;28;20198;-76
2022/09/19 01:49:20;;;;;;;4.67;1.47;;;;;;;-145.69;100.00;72053.13;5094011;28;20222;-76
2022/09/19 01:51:51;;;;;;;6.43;1.83;;;;;;;-145.69;100.00;72069.06;5094658;28;20217;-76
2022/09/19 01:54:36;;;;;;;4.93;1.80;;;;;;;-145.69;100.00;72071.03;5094542;28;20606;-76
2022/09/19 01:57:15;;;;;;;4.27;1.63;;;;;;;-145.69;100.00;72067.06;5094755;28;20198;-76
2022/09/19 02:00:01;;;;;;;4.13;1.70;;;;;;;-145.69;100.00;72065.06;5094571;28;20251;-76
2022/09/19 02:02:38;;;;;;;2.33;1.50;;;;;;;-145.69;100.00;72071.03;5080378;28;20230;-76
2022/09/19 02:05:11;;;;;;;4.30;1.60;;;;;;;-145.69;100.00;72075.03;5074038;28;20601;-76
2022/09/19 02:07:45;;;;;;;3.80;1.50;;;;;;;-145.69;100.00;72073.03;5074176;28;20359;-76
2022/09/19 02:10:18;;;;;;;3.53;1.77;;;;;;;-145.69;100.00;72075.03;5074208;28;20202;-77
2022/09/19 02:12:50;;;;;;;4.18;1.60;;;;;;;-145.69;100.00;72073.03;5073345;28;20442;-76
2022/09/19 02:15:21;;;;;;;4.10;1.30;;;;;;;-145.69;100.00;72081.00;5082414;28;20222;-75
2022/09/19 02:17:55;;;;;;;5.03;1.80;;;;;;;-145.69;100.00;72082.97;5094407;28;20530;-76
2022/09/19 02:20:27;;;;;;;3.07;1.60;;;;;;;-145.69;100.00;72082.97;5093777;28;20205;-77
2022/09/19 02:22:57;;;;;;;4.23;1.37;;;;;;;-145.69;100.00;72088.97;5093888;28;20700;-76
2022/09/19 02:25:28;;;;;;;3.43;1.30;;;;;;;-145.69;100.00;72102.88;5094614;28;20194;-75
2022/09/19 02:27:59;;;;;;;4.23;1.50;;;;;;;-145.69;100.00;72104.88;5093663;28;20245;-78
2022/09/19 02:30:27;;;;;;;2.47;1.50;;;;;;;-145.69;100.00;72114.81;5073780;28;20207;-75
2022/09/19 02:32:55;;;;;;;3.63;1.50;;;;;;;-145.69;100.00;72114.81;5073701;28;20219;-77
2022/09/19 02:35:38;;;;;;;4.90;1.57;;;;;;;-145.69;100.00;72122.78;5073468;28;20665;-77
2022/09/19 02:38:14;;;;;;;4.90;1.40;;;;;;;-145.69;100.00;72124.78;5073408;28;20203;-78
2022/09/19 02:40:49;;;;;;;4.63;1.20;;;;;;;-145.69;100.00;72134.72;5073587;28;20285;-77
2022/09/19 02:43:25;;;;;;;4.93;1.50;;;;;;;-145.69;100.00;72134.72;5085915;28;20225;-77
2022/09/19 02:45:56;;;;;;;3.87;1.20;;;;;;;-145.69;100.00;72138.72;5073344;28;20203;-77
2022/09/19 02:48:30;;;;;;;4.03;1.43;;;;;;;-145.69;100.00;72138.72;5073514;28;20199;-76
2022/09/19 02:51:01;;;;;;;4.60;1.23;;;;;;;-145.69;100.00;72138.72;5073388;28;20200;-77
2022/09/19 02:53:34;;;;;;;3.40;1.90;;;;;;;-145.69;100.00;72144.69;5072580;28;20235;-76
2022/09/19 02:56:04;;;;;;;3.23;1.20;;;;;;;-145.69;100.00;72148.66;5079634;28;20198;-77
2022/09/19 02:58:38;;;;;;;2.17;1.08;;;;;;;-145.69;100.00;72166.56;5092459;28;20428;-77
2022/09/19 03:01:10;;;;;;;2.20;0.70;;;;;;;-145.69;100.00;72174.53;5093639;28;20278;-76
2022/09/19 03:06:34;;;;;;;2.27;1.23;;;;;;;-145.69;100.00;72208.38;5073194;28;20236;-77
2022/09/19 03:09:02;;;;;;;2.03;1.03;;;;;;;-145.69;100.00;72220.31;5073197;28;20256;-77
2022/09/19 03:11:32;;;;;;;2.97;1.00;;;;;;;-145.69;100.00;72234.25;5091824;28;20198;-76
2022/09/19 03:13:59;;;;;;;2.90;0.90;;;;;;;-145.69;100.00;72238.22;5093630;28;20229;-76
2022/09/19 03:16:35;;;;;;;1.97;1.00;;;;;;;-145.69;100.00;72242.22;5093246;28;20202;-76
2022/09/19 03:19:02;;;;;;;1.13;0.73;;;;;;;-145.69;100.00;72258.13;5057239;28;20658;-77
2022/09/19 03:21:29;;;;;;;2.70;0.80;;;;;;;-145.69;100.00;72270.06;5053000;28;20199;-77
2022/09/19 03:23:58;;;;;;;1.00;0.90;;;;;;;-145.69;100.00;72272.06;5069879;28;20210;-77
2022/09/19 03:26:28;;;;;;;1.90;0.80;;;;;;;-145.69;100.00;72282.00;5093252;28;20293;-77
2022/09/19 03:28:55;;;;;;;1.07;0.87;;;;;;;-145.69;100.00;72291.97;5093092;28;20289;-77
2022/09/19 03:31:22;;;;;;;2.93;0.90;;;;;;;-145.69;100.00;72303.91;5093051;28;20202;-76
2022/09/19 03:33:51;;;;;;;3.10;1.00;;;;;;;-145.69;100.00;72323.81;5092844;28;20202;-77
2022/09/19 03:36:18;;;;;;;6.10;1.10;;;;;;;-145.69;100.00;72329.78;5093050;28;20231;-76
2022/09/19 03:38:45;;;;;;;6.47;0.97;;;;;;;-145.69;100.00;72329.78;5083718;28;20205;-76
2022/09/19 03:41:12;;;;;;;5.60;1.10;;;;;;;-145.69;100.00;72323.81;5093034;28;20588;-76
2022/09/19 03:43:42;;;;;;;1.00;0.80;;;;;;;-145.69;100.00;72323.81;5092741;28;20228;-76
2022/09/19 03:46:10;;;;;;;4.60;1.27;;;;;;;-145.69;100.00;72343.72;5092805;28;20241;-76
2022/09/19 03:48:37;;;;;;;2.80;1.00;;;;;;;-145.69;100.00;72357.66;5093447;28;20558;-78
2022/09/19 03:51:05;;;;;;;4.20;1.10;;;;;;;-145.69;100.00;72371.56;5084243;28;20199;-76
2022/09/19 03:53:32;;;;;;;2.83;1.17;;;;;;;-145.69;100.00;72381.53;5076614;28;20301;-76
2022/09/19 03:55:58;;;;;;;6.80;1.00;;;;;;;-145.69;100.00;72401.44;5076537;28;20679;-76
2022/09/19 03:58:25;;;;;;;3.97;0.90;;;;;;;-145.69;100.00;72409.38;5076747;28;20225;-76
2022/09/19 04:00:51;;;;;;;5.50;1.03;;;;;;;-145.69;100.00;72413.38;5076498;28;20198;-76
2022/09/19 04:03:19;;;;;;;3.63;1.10;;;;;;;-145.69;100.00;72409.38;5077506;28;20279;-77
2022/09/19 04:05:46;;;;;;;2.67;1.27;;;;;;;-145.69;100.00;72435.28;5096963;28;20229;-76
2022/09/19 04:08:13;;;;;;;1.60;0.97;;;;;;;-145.69;100.00;72461.13;5096613;28;20296;-76
2022/09/19 04:10:42;;;;;;;7.30;1.03;;;;;;;-145.69;100.00;72449.19;5096764;28;20200;-76
2022/09/19 04:13:08;;;;;;;2.17;1.10;;;;;;;-145.69;100.00;72441.25;5096575;28;20194;-76
2022/09/19 04:15:35;;;;;;;2.80;1.07;;;;;;;-145.69;100.00;72459.16;5096485;28;20225;-76
2022/09/19 04:18:03;;;;;;;5.93;1.40;;;;;;;-145.69;100.00;72469.09;5089957;28;20191;-76
2022/09/19 04:20:30;;;;;;;2.40;1.07;;;;;;;-145.69;100.00;72463.13;5076246;28;20199;-76
2022/09/19 04:23:00;;;;;;;4.80;1.17;;;;;;;-145.69;100.00;72477.06;5076090;28;20230;-75
2022/09/19 04:25:32;;;;;;;2.27;1.10;;;;;;;-145.69;100.00;72508.91;5076175;28;20221;-76
2022/09/19 04:28:03;;;;;;;2.77;0.90;;;;;;;-145.69;100.00;72520.84;5076160;28;20222;-76
2022/09/19 04:30:31;;;;;;;1.20;1.10;;;;;;;-145.69;100.00;72532.78;5076013;28;20202;-76
2022/09/19 04:32:58;;;;;;;5.30;1.07;;;;;;;-145.69;100.00;72544.75;5090797;28;20216;-76
2022/09/19 04:35:24;;;;;;;5.13;1.20;;;;;;;-145.69;100.00;72556.69;5096219;28;20583;-77
2022/09/19 04:37:51;;;;;;;3.37;1.27;;;;;;;-145.69;100.00;72566.63;5096171;28;20198;-77
2022/09/19 04:40:19;;;;;;;1.93;1.23;;;;;;;-145.69;100.00;72540.75;5095980;28;20657;-77
2022/09/19 04:42:47;;;;;;;2.67;1.20;;;;;;;-145.69;100.00;72544.75;5096145;28;20222;-77
2022/09/19 04:45:20;;;;;;;3.73;1.70;;;;;;;-145.69;100.00;72508.91;5091534;28;20187;-77
2022/09/19 04:47:47;;;;;;;2.53;1.33;;;;;;;-145.69;100.00;72522.84;5075960;28;20217;-77
2022/09/19 04:50:14;;;;;;;4.63;2.20;;;;;;;-145.69;100.00;72532.78;5055418;28;20693;-77
2022/09/19 04:52:42;;;;;;;4.93;1.83;;;;;;;-145.69;100.00;72538.78;5055611;28;20458;-77
2022/09/19 04:55:09;;;;;;;5.70;1.73;;;;;;;-145.69;100.00;72534.78;5055431;28;20290;-76
2022/09/19 04:57:35;;;;;;;6.70;2.10;;;;;;;-145.69;100.00;72532.78;5055438;28;20196;-76
2022/09/19 05:00:04;;;;;;;9.27;2.40;;;;;;;-145.69;100.00;72536.78;5076208;28;20198;-76
2022/09/19 05:02:31;;;;;;;8.47;1.93;;;;;;;-145.69;100.00;72548.72;5095536;28;20680;-77
2022/09/19 05:04:59;;;;;;;3.60;2.00;;;;;;;-145.69;100.00;72560.66;5095704;28;20209;-77
2022/09/19 05:07:28;;;;;;;6.17;1.73;;;;;;;-145.69;100.00;72576.59;5095737;28;20202;-77
2022/09/19 05:09:54;;;;;;;3.93;1.63;;;;;;;-145.69;100.00;72582.56;5095884;28;20250;-77
2022/09/19 05:12:21;;;;;;;4.07;1.93;;;;;;;-145.69;100.00;72576.59;5096339;28;20202;-77
2022/09/19 05:14:47;;;;;;;1.87;1.40;;;;;;;-145.69;100.00;72570.63;5067424;28;20199;-77
2022/09/19 05:17:15;;;;;;;10.40;1.70;;;;;;;-145.69;100.00;72588.53;5055488;28;20206;-78
2022/09/19 05:19:43;;;;;;;4.33;1.97;;;;;;;-145.69;100.00;72588.53;5055492;28;20204;-76
2022/09/19 05:22:10;;;;;;;5.63;1.90;;;;;;;-145.69;100.00;72594.50;5055409;28;20535;-76
2022/09/19 05:24:37;;;;;;;9.47;1.93;;;;;;;-145.69;100.00;72596.50;5055387;28;20203;-76
2022/09/19 05:27:04;;;;;;;3.63;1.67;;;;;;;-145.69;100.00;72604.44;5064396;28;20195;-76
2022/09/19 05:29:39;;;;;;;3.83;1.80;;;;;;;-145.69;100.00;72614.41;5095029;28;20208;-77
2022/09/19 05:32:06;;;;;;;3.77;2.47;;;;;;;-145.69;100.00;72618.38;5095198;28;20206;-76
2022/09/19 05:34:34;;;;;;;4.17;2.50;;;;;;;-145.69;100.00;72630.31;5094979;28;20201;-78
2022/09/19 05:37:00;;;;;;;8.50;2.40;;;;;;;-145.69;100.00;72628.34;5095179;28;20202;-76
2022/09/19 05:39:27;;;;;;;8.60;2.63;;;;;;;-145.69;100.00;72608.44;5094894;28;20209;-76
2022/09/19 05:41:53;;;;;;;4.40;2.80;;;;;;;-145.69;100.00;72600.47;5083920;28;20677;-76
2022/09/19 05:44:20;;;;;;;10.83;3.03;;;;;;;-145.69;100.00;72588.53;5074662;28;20245;-77
2022/09/19 05:46:47;;;;;;;6.67;2.80;;;;;;;-145.69;100.00;72568.63;5074563;28;20285;-77
2022/09/19 05:49:13;;;;;;;10.67;3.13;;;;;;;-145.69;100.00;72556.69;5074278;28;20567;-77
2022/09/19 05:51:41;;;;;;;10.17;2.93;;;;;;;-145.69;100.00;72542.75;5074473;28;20199;-76
2022/09/19 05:54:07;;;;;;;9.97;2.90;;;;;;;-145.69;100.00;72532.78;5074545;28;20210;-75
2022/09/19 05:56:33;;;;;;;8.23;3.13;;;;;;;-145.69;100.00;72528.81;5093072;28;20198;-75
2022/09/19 05:59:00;;;;;;;5.40;2.80;;;;;;;-145.69;100.00;72530.81;5094424;28;20667;-76
2022/09/19 06:01:26;;;;;;;9.23;2.80;;;;;;;-145.69;100.00;72528.81;5094476;28;20202;-77
2022/09/19 06:03:53;;;;;;;10.90;3.13;;;;;;;-145.69;100.00;72532.78;5094306;28;20226;-76
2022/09/19 06:06:19;;;;;;;7.43;3.40;;;;;;;-145.69;100.00;72528.81;5094514;28;20205;-76
2022/09/19 06:08:55;;;;;;;4.47;2.67;;;;;;;-145.69;100.00;72524.84;5086672;28;20229;-76
2022/09/19 06:11:22;;;;;;;7.67;3.00;;;;;;;-145.69;100.00;72520.84;5073482;28;20202;-76
2022/09/19 06:16:32;;;;;;;7.63;2.93;;;;;;;-145.69;100.00;72496.97;5074084;28;20201;-76
2022/09/19 06:19:00;;;;;;;5.00;2.97;;;;;;;-145.69;100.00;72473.09;5074094;28;20236;-76
2022/09/19 06:21:26;;;;;;;8.90;2.93;;;;;;;-145.69;100.00;72461.13;5074370;28;20289;-77
2022/09/19 06:23:54;;;;;;;4.00;3.10;;;;;;;-145.69;100.00;72421.34;5094155;28;20232;-76
2022/09/19 06:26:20;;;;;;;5.23;2.67;;;;;;;-145.69;100.00;72405.41;5094012;28;20663;-76
2022/09/19 06:28:47;;;;;;;6.97;2.83;;;;;;;-145.69;100.00;72369.59;5093851;28;20205;-76
2022/09/19 06:31:13;;;;;;;6.30;2.80;;;;;;;-145.69;100.00;72363.63;5094090;28;20202;-76
2022/09/19 06:33:42;;;;;;;9.00;2.60;;;;;;;-145.69;100.00;72345.69;5094080;28;20205;-76
2022/09/19 06:36:12;;;;;;;5.93;2.03;;;;;;;-145.69;100.00;72325.81;5083300;28;20202;-76
2022/09/19 06:38:40;;;;;;;7.03;2.17;;;;;;;-145.69;100.00;72303.91;5073529;28;20687;-76
2022/09/19 06:41:09;;;;;;;8.20;1.73;;;;;;;-145.69;100.00;72297.94;5073385;28;20195;-76
2022/09/19 06:43:36;;;;;;;7.07;1.85;;;;;;;-145.69;100.00;72291.97;5072812;28;20450;-76
2022/09/19 06:46:03;;;;;;;8.13;1.67;;;;;;;-145.69;100.00;72289.97;5073405;28;20229;-76
2022/09/19 06:48:29;;;;;;;4.20;1.67;;;;;;;-145.69;100.00;72266.09;5073772;28;20202;-76
2022/09/19 06:50:56;;;;;;;15.90;2.50;;;;;;;-145.69;100.00;72268.06;5093221;28;20205;-76
2022/09/19 06:53:22;;;;;;;6.23;1.80;;;;;;;-145.69;100.00;72224.28;5093371;28;20194;-76
2022/09/19 06:55:49;;;;;;;4.83;1.63;;;;;;;-145.69;100.00;72226.28;5093330;28;20194;-76
2022/09/19 06:58:17;;;;;;;3.33;1.40;;;;;;;-145.69;100.00;72244.19;5093672;28;20200;-77
2022/09/19 07:00:44;;;;;;;2.40;1.30;;;;;;;-145.69;100.00;72196.44;5093368;28;20194;-77
2022/09/19 07:03:12;;;;;;;7.23;1.70;;;;;;;-145.69;100.00;72188.47;5087470;28;20234;-76
2022/09/19 07:05:42;;;;;;;2.30;1.20;;;;;;;-145.69;100.00;72162.59;5073203;28;20243;-76
2022/09/19 07:08:09;;;;;;;6.40;1.43;;;;;;;-145.69;100.00;72146.69;5068511;28;20231;-76
2022/09/19 07:10:36;;;;;;;9.90;1.50;;;;;;;-145.69;100.00;72138.72;5073014;28;20199;-76
2022/09/19 07:13:04;;;;;;;9.77;1.67;;;;;;;-145.69;100.00;72154.63;5073160;28;20298;-76
2022/09/19 07:15:34;;;;;;;6.77;1.70;;;;;;;-145.69;100.00;72154.63;5073144;28;20567;-76
2022/09/19 07:18:01;;;;;;;12.00;2.00;;;;;;;-145.69;100.00;72130.75;5074291;28;20545;-76
2022/09/19 07:20:29;;;;;;;4.73;1.60;;;;;;;-145.69;100.00;72124.78;5072948;28;20202;-77
2022/09/19 07:23:00;;;;;;;4.87;1.60;;;;;;;-145.69;100.00;72128.75;5072230;28;20209;-77
2022/09/19 07:25:27;;;;;;;6.87;1.30;;;;;;;-145.69;100.00;72128.75;5072989;28;20275;-77
2022/09/19 07:27:57;;;;;;;10.53;1.57;;;;;;;-145.69;100.00;72116.81;5072984;28;20238;-76
2022/09/19 07:30:24;;;;;;;5.20;1.73;;;;;;;-145.69;100.00;72084.97;5072906;28;20195;-76
2022/09/19 07:32:55;;;;;;;7.00;1.63;;;;;;;-145.69;100.00;72059.09;5089477;28;20198;-76
2022/09/19 07:35:21;;;;;;;7.60;1.73;;;;;;;-145.69;100.00;72021.28;5092935;28;20672;-77
2022/09/19 07:37:49;;;;;;;8.83;1.90;;;;;;;-145.69;100.00;72015.31;5093044;28;20193;-77
2022/09/19 07:40:16;;;;;;;11.27;2.77;;;;;;;-145.69;100.00;72001.38;5093101;28;20205;-75
2022/09/19 07:42:42;;;;;;;9.63;2.00;;;;;;;-145.69;100.00;72011.34;5092938;28;20656;-77
2022/09/19 07:45:10;;;;;;;8.50;2.43;;;;;;;-145.69;100.00;71957.59;5086855;28;20214;-76
2022/09/19 07:47:43;;;;;;;6.07;1.50;;;;;;;-145.69;100.00;71993.44;5072689;28;20673;-76
2022/09/19 07:50:16;;;;;;;10.50;3.53;;;;;;;-145.69;100.00;72015.31;5072312;28;20701;-77
2022/09/19 07:52:46;;;;;;;4.93;1.20;;;;;;;-145.69;100.00;72067.06;5072820;28;20268;-76
2022/09/19 07:55:13;;;;;;;5.57;1.93;;;;;;;-145.69;100.00;72098.91;5072525;28;20240;-76
2022/09/19 07:57:40;;;;;;;5.57;1.50;;;;;;;-145.69;100.00;72124.78;5072566;28;20206;-76
2022/09/19 08:00:07;;;;;;;10.53;1.63;;;;;;;-145.69;100.00;72136.72;5090054;28;20205;-77
2022/09/19 08:02:34;;;;;;;13.23;1.60;;;;;;;-145.69;100.00;72146.69;5092563;28;20234;-75
2022/09/19 08:05:00;;;;;;;11.13;1.50;;;;;;;-145.69;100.00;72136.72;5082816;28;20226;-75
2022/09/19 08:07:28;;;;;;;10.30;2.80;;;;;;;-145.69;100.00;72082.97;5072575;28;20211;-76
2022/09/19 08:09:55;;;;;;;5.43;1.30;;;;;;;-145.69;100.00;72092.94;5072272;28;20440;-75
2022/09/19 08:12:22;;;;;;;7.03;1.80;;;;;;;-145.69;100.00;72075.03;5072538;28;20226;-76
2022/09/19 08:14:48;;;;;;;5.77;2.00;;;;;;;-145.69;100.00;72073.03;5072261;28;20199;-75
2022/09/19 08:17:15;;;;;;;6.37;1.30;;;;;;;-145.69;100.00;72007.34;5073301;28;20195;-76
2022/09/19 08:19:42;;;;;;;10.17;1.50;;;;;;;-145.69;100.00;72009.34;5072534;28;20206;-75
2022/09/19 08:22:10;;;;;;;9.40;1.70;;;;;;;-145.69;100.00;72035.22;5072255;28;20561;-76
2022/09/19 08:24:38;;;;;;;9.30;1.63;;;;;;;-145.69;100.00;72049.16;5072310;28;20347;-75
2022/09/19 08:27:04;;;;;;;7.30;1.80;;;;;;;-145.69;100.00;72086.97;5074413;28;20280;-75
2022/09/19 08:29:32;;;;;;;4.83;1.40;;;;;;;-145.69;100.00;72065.06;5092367;28;20212;-76
2022/09/19 08:32:00;;;;;;;8.33;1.90;;;;;;;-145.69;100.00;72063.09;5092664;28;20194;-75
2022/09/19 08:34:26;;;;;;;12.13;1.77;;;;;;;-145.69;100.00;72051.16;5092823;28;20263;-75
2022/09/19 08:36:58;;;;;;;6.77;1.27;;;;;;;-145.69;100.00;72079.00;5096272;28;20202;-76
2022/09/19 08:39:25;;;;;;;6.87;1.53;;;;;;;-145.69;100.00;72098.91;5096351;28;20206;-78
2022/09/19 08:42:11;;;;;;;7.17;1.23;;;;;;;-145.69;100.00;72102.88;5087110;28;20206;-77
2022/09/19 08:44:52;;;;;;;10.40;1.80;;;;;;;-145.69;100.00;72134.72;5075640;28;20714;-76
2022/09/19 08:47:23;;;;;;;9.70;1.83;;;;;;;-145.69;100.00;72148.66;5075822;28;20561;-76
2022/09/19 08:49:54;;;;;;;10.07;2.43;;;;;;;-145.69;100.00;72152.66;5075683;28;20229;-76
2022/09/19 08:52:30;;;;;;;5.77;1.47;;;;;;;-145.69;100.00;72170.56;5075624;28;20676;-77
2022/09/19 08:54:58;;;;;;;7.13;1.70;;;;;;;-145.69;100.00;72166.56;5075686;28;20205;-76
2022/09/19 08:57:31;;;;;;;8.23;1.70;;;;;;;-145.69;100.00;72164.59;5094200;28;20206;-76
2022/09/19 09:00:02;;;;;;;8.10;2.83;;;;;;;-145.69;100.00;72158.63;5095807;28;20197;-75
2022/09/19 09:02:40;;;;;;;5.60;1.73;;;;;;;-145.69;100.00;72138.72;5095792;28;20241;-77
2022/09/19 09:05:12;;;;;;;11.33;1.80;;;;;;;-145.69;100.00;72100.91;5095422;28;20233;-77
2022/09/19 09:07:53;;;;;;;12.23;1.70;;;;;;;-145.69;100.00;72106.88;5095661;28;20204;-76
2022/09/19 09:10:37;;;;;;;15.30;4.07;;;;;;;-145.69;100.00;72039.19;5087087;28;20229;-76
2022/09/19 09:13:20;;;;;;;8.23;1.90;;;;;;;-145.69;100.00;72009.34;5075275;28;20689;-77
2022/09/19 09:15:58;;;;;;;10.63;1.50;;;;;;;-145.69;100.00;71999.41;5072959;28;20676;-75
2022/09/19 09:18:44;;;;;;;12.60;3.30;;;;;;;-145.69;100.00;71929.75;5055149;28;20198;-76
2022/09/19 09:21:17;;;;;;;10.45;1.92;;;;;;;-145.69;100.00;71872.03;5055081;28;20203;-76
2022/09/19 09:23:48;;;;;;;4.53;1.40;;;;;;;-145.69;100.00;71792.44;5061302;28;20228;-75
2022/09/19 09:26:19;;;;;;;6.68;1.60;;;;;;;-145.69;100.00;71822.28;5095536;28;20205;-76
2022/09/19 09:28:51;;;;;;;8.73;2.20;;;;;;;-145.69;100.00;71772.53;5095431;28;20221;-77
2022/09/19 09:31:24;;;;;;;11.88;1.80;;;;;;;-145.69;99.01;71796.41;5095138;28;20674;-77
2022/09/19 09:33:57;;;;;;;4.43;1.00;;;;;;;-145.69;100.00;71872.03;5095113;28;20202;-75
2022/09/19 09:36:31;;;;;;;8.02;1.50;;;;;;;-145.69;100.00;71951.63;5095272;28;20198;-77
2022/09/19 09:39:02;;;;;;;5.28;1.55;;;;;;;-145.69;100.00;71943.69;5079702;28;20225;-76
2022/09/19 09:41:47;;;;;;;6.63;1.35;;;;;;;-145.69;100.00;71931.72;5058032;28;20650;-77
2022/09/19 09:44:44;;;;;;;8.43;1.70;;;;;;;-145.69;100.00;71919.78;5054378;28;20702;-77
2022/09/19 09:47:21;;;;;;;6.13;1.45;;;;;;;-145.69;97.70;71911.84;5053674;28;20207;-76
2022/09/19 09:49:49;;;;;;;5.32;1.00;;;;;;;-145.69;97.96;71913.81;5054399;28;20598;-76
2022/09/19 09:52:31;;;;;;;2.75;1.00;;;;;;;-145.69;99.15;71947.66;5080900;28;20557;-76
2022/09/19 09:57:58;;;;;;;6.45;1.13;;;;;;;-145.69;99.83;72023.28;5054594;28;20202;-78
2022/09/19 10:03:35;;;;;;;5.27;1.30;;;;;;;-145.69;100.00;72075.03;5071011;28;20205;-78
2022/09/19 10:06:08;;;;;;;4.03;1.10;;;;;;;-145.69;100.00;72090.94;5087359;28;20545;-76
2022/09/19 10:08:37;;;;;;;6.50;1.20;;;;;;;-145.69;100.00;72092.94;5074176;28;20199;-76
2022/09/19 10:11:11;;;;;;;6.43;1.17;;;;;;;-145.69;100.00;72118.81;5074017;28;20203;-74
2022/09/19 10:13:47;;;;;;;7.33;1.23;;;;;;;-145.69;100.00;72154.63;5074055;28;20206;-76
2022/09/19 10:16:18;;;;;;;7.87;1.10;;;;;;;-145.69;100.00;72174.53;5091816;28;20205;-77
2022/09/19 10:18:50;;;;;;;5.93;1.27;;;;;;;-145.69;100.00;72196.44;5094440;28;20204;-75
2022/09/19 10:21:16;;;;;;;6.13;1.67;;;;;;;-145.69;100.00;72172.53;5093267;28;20440;-75
2022/09/19 10:23:45;;;;;;;7.43;1.73;;;;;;;-145.69;100.00;72146.69;5094060;28;20198;-75
2022/09/19 10:26:15;;;;;;;7.60;1.50;;;;;;;-145.69;100.00;72104.88;5093911;28;20292;-75
2022/09/19 10:28:49;;;;;;;54.80;20.27;;;;;;;-145.69;100.00;72057.13;5089025;28;20214;-75
2022/09/19 10:31:24;;;;;;;44.90;21.03;;;;;;;-145.69;100.00;72019.31;5073652;28;20657;-75
2022/09/19 10:33:52;;;;;;;6.70;1.90;;;;;;;-145.69;100.00;71977.50;5074624;28;20194;-76
2022/09/19 10:36:22;;;;;;;7.03;1.47;;;;;;;-145.69;100.00;71927.75;5073458;28;20297;-76
2022/09/19 10:38:53;;;;;;;9.03;1.50;;;;;;;-145.69;100.00;71846.16;5073460;28;20715;-75
2022/09/19 10:41:22;;;;;;;10.32;1.40;;;;;;;-145.69;100.00;71780.50;5073373;28;20732;-76
2022/09/19 10:43:50;;;;;;;7.22;1.33;;;;;;;-145.69;100.00;71820.28;5086945;28;20213;-74
2022/09/19 10:46:20;;;;;;;8.15;1.10;;;;;;;-145.69;100.00;71838.19;5093843;28;20255;-74
2022/09/19 10:48:54;;;;;;;11.30;1.77;;;;;;;-145.69;100.00;71933.72;5093383;28;20206;-75
2022/09/19 10:51:21;;;;;;;4.32;1.30;;;;;;;-145.69;100.00;71955.63;5093470;28;20668;-76
2022/09/19 10:53:53;;;;;;;9.43;1.30;;;;;;;-145.69;100.00;71959.59;5093669;28;20209;-75
2022/09/19 10:56:24;;;;;;;6.65;1.25;;;;;;;-145.69;100.00;71911.84;5087988;28;20191;-75
2022/09/19 10:58:59;;;;;;;10.30;1.45;;;;;;;-145.69;100.00;71878.00;5072951;28;20207;-75
2022/09/19 11:01:27;;;;;;;6.68;1.33;;;;;;;-145.69;100.00;71864.06;5073224;28;20229;-75
2022/09/19 11:04:04;;;;;;;8.35;1.00;;;;;;;-145.69;100.00;71883.97;5077902;28;20641;-75
2022/09/19 11:06:31;;;;;;;8.68;1.30;;;;;;;-145.69;100.00;71874.03;5093497;28;20200;-75
2022/09/19 11:08:59;;;;;;;4.28;1.20;;;;;;;-145.69;100.00;71854.13;5093350;28;20198;-75
2022/09/19 11:11:36;;;;;;;3.50;1.00;;;;;;;-145.69;100.00;71885.97;5064288;28;20295;-75
2022/09/19 11:14:26;;;;;;;10.73;1.23;;;;;;;-145.69;100.00;71856.09;5052960;28;20257;-76
2022/09/19 11:17:10;;;;;;;10.32;1.13;;;;;;;-145.69;95.85;71832.22;5081987;28;20201;-75
2022/09/19 11:20:01;;;;;;;6.95;1.50;;;;;;;-145.69;99.03;71856.09;5092998;28;20718;-75
2022/09/19 11:22:40;;;;;;;8.68;1.10;;;;;;;-145.69;97.14;71824.25;5092943;28;20202;-76
2022/09/19 11:25:17;;;;;;;7.47;0.80;;;;;;;-145.69;94.33;71854.13;5092933;28;20230;-75
2022/09/19 11:28:04;;;;;;;5.60;1.13;;;;;;;-145.69;91.30;71880.00;5092975;28;20661;-75
2022/09/19 11:30:36;;;;;;;5.57;0.90;;;;;;;-145.69;94.56;71897.91;5074989;28;20560;-76
2022/09/19 11:33:27;;;;;;;7.60;1.00;;;;;;;-145.69;94.55;71915.81;5062481;28;20207;-75
2022/09/19 11:36:05;;;;;;;4.05;1.27;;;;;;;-145.69;97.05;71872.03;5052622;28;20198;-76
2022/09/19 11:38:40;;;;;;;3.47;0.93;;;;;;;-145.69;92.73;71830.25;5052601;28;20531;-75
2022/09/19 11:41:20;;;;;;;2.63;0.80;;;;;;;-145.69;92.87;71792.44;5052730;28;20199;-75